createdAt,value
2017-11-18T00:01:05.894Z,6.70
2017-11-18T00:03:32.003Z,6.70
2017-11-18T00:05:58.851Z,6.70
2017-11-18T00:08:24.928Z,6.70
2017-11-18T00:10:51.039Z,6.60
2017-11-18T00:13:17.230Z,6.70
2017-11-18T00:15:43.308Z,6.60
2017-11-18T00:18:09.376Z,6.60
2017-11-18T00:20:35.427Z,6.60
2017-11-18T00:23:01.604Z,6.50
2017-11-18T00:25:27.813Z,6.40
2017-11-18T00:27:54.018Z,6.40
2017-11-18T00:30:20.259Z,6.50
2017-11-18T00:32:47.343Z,6.40
2017-11-18T00:35:13.635Z,6.40
2017-11-18T00:37:43.500Z,6.30
2017-11-18T00:40:15.594Z,6.30
2017-11-18T00:42:42.903Z,6.30
2017-11-18T00:45:09.203Z,6.30
2017-11-18T00:47:35.554Z,6.00
2017-11-18T00:50:01.884Z,6.30
2017-11-18T00:52:28.957Z,6.30
2017-11-18T00:54:55.275Z,6.30
2017-11-18T00:57:23.108Z,6.20
2017-11-18T00:59:49.376Z,6.20
2017-11-18T01:02:16.476Z,6.20
2017-11-18T01:04:43.525Z,6.20
2017-11-18T01:07:09.884Z,6.10
2017-11-18T01:09:36.232Z,6.10
2017-11-18T01:12:02.527Z,6.20
2017-11-18T01:14:28.863Z,6.10
2017-11-18T01:16:55.174Z,6.10
2017-11-18T01:19:21.451Z,6.10
2017-11-18T01:21:48.502Z,6.00
2017-11-18T01:24:15.195Z,6.00
2017-11-18T01:26:41.470Z,6.00
2017-11-18T01:29:07.734Z,6.40
2017-11-18T01:31:34.021Z,6.40
2017-11-18T01:34:00.310Z,5.90
2017-11-18T01:36:27.357Z,6.00
2017-11-18T01:38:53.626Z,5.90
2017-11-18T01:41:19.932Z,6.00
2017-11-18T01:43:46.171Z,6.00
2017-11-18T01:46:12.422Z,6.00
2017-11-18T01:48:38.734Z,6.10
2017-11-18T01:51:05.048Z,6.00
2017-11-18T01:53:32.096Z,5.90
2017-11-18T01:55:58.382Z,5.50
2017-11-18T01:58:24.687Z,5.80
2017-11-18T02:00:51.052Z,5.80
2017-11-18T02:03:18.073Z,5.80
2017-11-18T02:05:44.327Z,5.80
2017-11-18T02:08:11.403Z,5.90
2017-11-18T02:10:38.891Z,5.90
2017-11-18T02:13:05.230Z,5.80
2017-11-18T02:15:31.515Z,5.90
2017-11-18T02:17:57.810Z,6.00
2017-11-18T02:20:24.122Z,5.70
2017-11-18T02:22:50.375Z,5.90
2017-11-18T02:25:16.639Z,5.80
2017-11-18T02:27:43.628Z,5.80
2017-11-18T02:30:10.704Z,5.80
2017-11-18T02:32:36.963Z,5.80
2017-11-18T02:35:03.246Z,5.80
2017-11-18T02:37:29.508Z,5.80
2017-11-18T02:39:56.823Z,5.70
2017-11-18T02:42:23.063Z,5.70
2017-11-18T02:44:49.342Z,5.70
2017-11-18T02:47:15.624Z,5.70
2017-11-18T02:49:42.043Z,5.70
2017-11-18T02:52:08.530Z,5.70
2017-11-18T02:54:34.821Z,5.30
2017-11-18T02:57:01.131Z,5.60
2017-11-18T02:59:27.441Z,5.60
2017-11-18T03:01:53.726Z,5.60
2017-11-18T03:04:20.117Z,5.60
2017-11-18T03:06:46.615Z,5.50
2017-11-18T03:09:13.624Z,5.50
2017-11-18T03:11:39.910Z,5.50
2017-11-18T03:14:06.971Z,5.60
2017-11-18T03:16:33.262Z,5.60
2017-11-18T03:18:59.546Z,5.60
2017-11-18T03:21:26.587Z,5.50
2017-11-18T03:23:52.960Z,5.50
2017-11-18T03:26:19.199Z,5.60
2017-11-18T03:28:46.194Z,5.50
2017-11-18T03:31:12.524Z,5.50
2017-11-18T03:33:38.968Z,5.40
2017-11-18T03:36:05.367Z,5.40
2017-11-18T03:38:31.667Z,5.60
2017-11-18T03:40:57.958Z,5.60
2017-11-18T03:43:25.003Z,5.60
2017-11-18T03:45:51.280Z,5.60
2017-11-18T03:48:18.296Z,5.70
2017-11-18T03:50:45.630Z,5.70
2017-11-18T03:53:11.894Z,5.70
2017-11-18T03:55:38.187Z,5.80
2017-11-18T03:58:04.491Z,5.80
2017-11-18T04:00:30.764Z,5.90
2017-11-18T04:02:57.370Z,5.90
2017-11-18T04:05:23.654Z,6.00
2017-11-18T04:07:49.918Z,6.00
2017-11-18T04:10:16.225Z,6.00
2017-11-18T04:12:43.603Z,5.90
2017-11-18T04:15:09.858Z,5.90
2017-11-18T04:17:36.167Z,6.00
2017-11-18T04:20:03.243Z,6.10
2017-11-18T04:22:29.963Z,6.10
2017-11-18T04:24:57.034Z,6.10
2017-11-18T04:27:23.299Z,6.10
2017-11-18T04:29:49.578Z,6.10
2017-11-18T04:32:16.123Z,6.00
2017-11-18T04:34:42.422Z,6.00
2017-11-18T04:37:08.703Z,5.60
2017-11-18T04:39:37.019Z,5.90
2017-11-18T04:42:04.152Z,6.00
2017-11-18T04:44:31.139Z,6.00
2017-11-18T04:46:57.400Z,6.00
2017-11-18T04:49:23.694Z,6.00
2017-11-18T04:51:49.964Z,6.00
2017-11-18T04:54:16.271Z,6.00
2017-11-18T04:56:42.579Z,5.90
2017-11-18T04:59:09.635Z,6.00
2017-11-18T05:01:35.986Z,6.00
2017-11-18T05:04:02.255Z,6.10
2017-11-18T05:06:29.276Z,6.10
2017-11-18T05:08:55.574Z,6.10
2017-11-18T05:11:21.960Z,6.00
2017-11-18T05:13:48.219Z,6.40
2017-11-18T05:16:14.766Z,6.00
2017-11-18T05:18:41.108Z,6.00
2017-11-18T05:21:08.263Z,6.00
2017-11-18T05:23:34.491Z,6.00
2017-11-18T05:26:01.063Z,6.00
2017-11-18T05:28:27.302Z,6.00
2017-11-18T05:30:53.624Z,6.10
2017-11-18T05:33:20.595Z,6.20
2017-11-18T05:35:46.864Z,6.20
2017-11-18T05:38:13.948Z,6.30
2017-11-18T05:40:40.295Z,6.30
2017-11-18T05:43:06.571Z,6.30
2017-11-18T05:45:32.849Z,6.40
2017-11-18T05:47:59.172Z,6.20
2017-11-18T05:50:25.715Z,6.30
2017-11-18T05:55:31.859Z,6.20
2017-11-18T05:57:58.205Z,5.80
2017-11-18T06:00:24.490Z,6.40
2017-11-18T06:02:50.735Z,6.30
2017-11-18T06:05:17.790Z,6.40
2017-11-18T06:07:44.051Z,6.40
2017-11-18T06:10:10.327Z,6.40
2017-11-18T06:12:36.627Z,6.20
2017-11-18T06:15:03.695Z,6.50
2017-11-18T06:17:29.949Z,6.50
2017-11-18T06:19:56.939Z,6.50
2017-11-18T06:22:23.223Z,6.50
2017-11-18T06:24:49.491Z,6.50
2017-11-18T06:27:17.481Z,6.50
2017-11-18T06:29:43.740Z,6.50
2017-11-18T06:32:10.051Z,6.40
2017-11-18T06:34:36.383Z,6.50
2017-11-18T06:37:03.433Z,6.40
2017-11-18T06:39:29.704Z,6.30
2017-11-18T06:41:55.995Z,6.30
2017-11-18T06:44:22.271Z,6.40
2017-11-18T06:46:48.562Z,6.40
2017-11-18T06:49:14.863Z,6.30
2017-11-18T06:51:41.159Z,6.80
2017-11-18T06:54:07.444Z,6.40
2017-11-18T06:56:33.686Z,6.30
2017-11-18T06:58:59.951Z,6.60
2017-11-18T07:01:26.236Z,6.40
2017-11-18T07:03:52.539Z,6.50
2017-11-18T07:06:18.865Z,6.50
2017-11-18T07:08:45.151Z,6.60
2017-11-18T07:11:11.428Z,6.40
2017-11-18T07:13:37.677Z,6.50
2017-11-18T07:16:04.704Z,6.50
2017-11-18T07:18:31.007Z,6.50
2017-11-18T07:20:57.323Z,6.40
2017-11-18T07:23:24.333Z,6.40
2017-11-18T07:25:50.679Z,6.40
2017-11-18T07:28:16.925Z,6.40
2017-11-18T07:30:43.184Z,6.80
2017-11-18T07:33:09.445Z,6.40
2017-11-18T07:35:36.459Z,6.50
2017-11-18T07:38:02.728Z,6.50
2017-11-18T07:40:29.003Z,6.40
2017-11-18T07:42:55.366Z,6.40
2017-11-18T07:45:22.332Z,6.50
2017-11-18T07:47:48.588Z,6.40
2017-11-18T07:50:14.887Z,6.40
2017-11-18T07:52:41.194Z,6.30
2017-11-18T07:55:08.627Z,6.40
2017-11-18T07:57:35.211Z,6.30
2017-11-18T08:00:01.483Z,6.80
2017-11-18T08:02:28.529Z,6.40
2017-11-18T08:04:55.827Z,6.40
2017-11-18T08:07:22.155Z,6.40
2017-11-18T08:09:48.428Z,6.40
2017-11-18T08:12:14.711Z,6.40
2017-11-18T08:14:41.748Z,6.40
2017-11-18T08:17:08.695Z,6.40
2017-11-18T08:19:35.001Z,6.40
2017-11-18T08:22:01.308Z,6.40
2017-11-18T08:24:27.588Z,6.50
2017-11-18T08:26:53.847Z,6.60
2017-11-18T08:29:20.179Z,6.60
2017-11-18T08:31:46.463Z,6.60
2017-11-18T08:34:12.735Z,6.60
2017-11-18T08:36:40.871Z,6.60
2017-11-18T08:39:07.146Z,6.70
2017-11-18T08:41:33.667Z,6.60
2017-11-18T08:44:00.749Z,6.60
2017-11-18T08:46:27.874Z,6.50
2017-11-18T08:48:54.119Z,6.50
2017-11-18T08:51:21.525Z,6.50
2017-11-18T08:53:48.922Z,6.60
2017-11-18T08:56:16.395Z,6.50
2017-11-18T08:58:43.052Z,6.30
2017-11-18T09:01:09.327Z,6.10
2017-11-18T09:03:36.171Z,6.50
2017-11-18T09:06:02.504Z,6.60
2017-11-18T09:08:28.844Z,6.60
2017-11-18T09:10:55.171Z,7.10
2017-11-18T09:13:22.178Z,6.80
2017-11-18T09:15:48.467Z,6.80
2017-11-18T09:18:14.798Z,6.90
2017-11-18T09:20:41.068Z,6.70
2017-11-18T09:23:08.435Z,6.70
2017-11-18T09:25:34.743Z,6.60
2017-11-18T09:28:01.041Z,6.60
2017-11-18T09:30:27.329Z,6.60
2017-11-18T09:32:54.357Z,6.60
2017-11-18T09:35:21.683Z,6.60
2017-11-18T09:37:48.037Z,6.50
2017-11-18T09:40:14.338Z,6.40
2017-11-18T09:42:40.587Z,6.50
2017-11-18T09:45:07.647Z,6.40
2017-11-18T09:47:34.688Z,6.50
2017-11-18T09:50:01.712Z,6.50
2017-11-18T09:52:28.049Z,6.50
2017-11-18T09:54:54.319Z,6.60
2017-11-18T09:57:20.610Z,6.70
2017-11-18T09:59:48.527Z,6.80
2017-11-18T10:02:14.827Z,6.70
2017-11-18T10:04:41.824Z,6.80
2017-11-18T10:07:08.140Z,6.80
2017-11-18T10:09:35.504Z,6.80
2017-11-18T10:12:02.592Z,6.70
2017-11-18T10:14:28.844Z,6.70
2017-11-18T10:16:55.100Z,6.70
2017-11-18T10:19:21.334Z,6.80
2017-11-18T10:21:47.616Z,6.80
2017-11-18T10:24:13.964Z,6.70
2017-11-18T10:26:40.991Z,6.70
2017-11-18T10:29:07.280Z,6.90
2017-11-18T10:31:33.597Z,6.90
2017-11-18T10:34:00.704Z,6.80
2017-11-18T10:36:27.125Z,7.00
2017-11-18T10:38:54.105Z,6.90
2017-11-18T10:41:20.393Z,6.90
2017-11-18T10:43:46.738Z,6.90
2017-11-18T10:46:13.010Z,7.00
2017-11-18T10:48:40.023Z,7.10
2017-11-18T10:51:06.323Z,7.10
2017-11-18T10:53:32.719Z,7.10
2017-11-18T10:55:58.999Z,7.20
2017-11-18T10:58:25.331Z,7.10
2017-11-18T11:00:51.944Z,7.10
2017-11-18T11:03:19.015Z,7.20
2017-11-18T11:05:46.047Z,7.20
2017-11-18T11:08:12.330Z,7.20
2017-11-18T11:10:38.628Z,7.20
2017-11-18T11:13:04.898Z,7.20
2017-11-18T11:15:31.164Z,7.20
2017-11-18T11:17:58.166Z,7.30
2017-11-18T11:20:24.451Z,7.50
2017-11-18T11:22:50.739Z,7.20
2017-11-18T11:25:17.061Z,7.20
2017-11-18T11:27:44.309Z,7.30
2017-11-18T11:30:11.304Z,7.40
2017-11-18T11:32:39.904Z,7.40
2017-11-18T11:35:06.203Z,7.40
2017-11-18T11:37:32.497Z,7.50
2017-11-18T11:39:58.762Z,7.30
2017-11-18T11:42:25.058Z,7.40
2017-11-18T11:44:51.343Z,7.40
2017-11-18T11:47:17.648Z,7.40
2017-11-18T11:49:45.483Z,7.50
2017-11-18T11:52:11.791Z,7.50
2017-11-18T11:54:38.974Z,7.50
2017-11-18T11:57:05.258Z,7.00
2017-11-18T11:59:31.552Z,7.40
2017-11-18T12:01:58.534Z,7.50
2017-11-18T12:04:24.792Z,7.50
2017-11-18T12:06:51.059Z,7.40
2017-11-18T12:09:20.701Z,7.50
2017-11-18T12:11:47.079Z,7.40
2017-11-18T12:14:13.385Z,7.50
2017-11-18T12:16:39.672Z,7.60
2017-11-18T12:19:05.987Z,7.70
2017-11-18T12:21:33.035Z,7.80
2017-11-18T12:23:59.292Z,7.80
2017-11-18T12:26:29.450Z,7.90
2017-11-18T12:28:55.802Z,7.90
2017-11-18T12:31:22.939Z,8.10
2017-11-18T12:33:49.206Z,8.10
2017-11-18T12:36:16.262Z,7.90
2017-11-18T12:38:42.547Z,7.90
2017-11-18T12:41:08.911Z,7.80
2017-11-18T12:43:39.443Z,7.90
2017-11-18T12:46:05.994Z,8.00
2017-11-18T12:48:32.531Z,8.10
2017-11-18T12:50:59.096Z,8.20
2017-11-18T12:53:25.434Z,8.30
2017-11-18T12:55:52.431Z,8.30
2017-11-18T12:58:21.430Z,8.50
2017-11-18T13:00:50.634Z,8.70
2017-11-18T13:03:17.735Z,8.70
2017-11-18T13:05:43.973Z,8.70
2017-11-18T13:08:10.384Z,8.70
2017-11-18T13:10:36.711Z,8.90
2017-11-18T13:13:03.763Z,9.00
2017-11-18T13:15:34.392Z,8.90
2017-11-18T13:18:00.717Z,8.70
2017-11-18T13:20:27.723Z,8.30
2017-11-18T13:22:54.014Z,8.20
2017-11-18T13:25:21.028Z,8.20
2017-11-18T13:27:47.327Z,8.20
2017-11-18T13:30:18.471Z,8.20
2017-11-18T13:32:45.539Z,8.30
2017-11-18T13:35:11.851Z,8.30
2017-11-18T13:37:38.145Z,8.20
2017-11-18T13:40:04.560Z,8.10
2017-11-18T13:42:30.887Z,8.10
2017-11-18T13:44:57.177Z,8.10
2017-11-18T13:47:28.612Z,8.10
2017-11-18T13:49:54.890Z,8.00
2017-11-18T13:52:21.155Z,7.90
2017-11-18T13:54:47.458Z,7.80
2017-11-18T13:57:14.559Z,7.80
2017-11-18T13:59:40.856Z,7.80
2017-11-18T14:02:09.806Z,7.60
2017-11-18T14:04:36.110Z,7.60
2017-11-18T14:07:02.494Z,7.70
2017-11-18T14:09:28.826Z,7.80
2017-11-18T14:11:55.159Z,7.80
2017-11-18T14:14:22.203Z,7.60
2017-11-18T14:16:48.470Z,7.60
2017-11-18T14:19:17.140Z,7.70
2017-11-18T14:21:43.422Z,7.70
2017-11-18T14:24:09.757Z,7.60
2017-11-18T14:26:36.945Z,7.50
2017-11-18T14:29:03.212Z,7.50
2017-11-18T14:31:29.546Z,7.40
2017-11-18T14:36:28.015Z,7.20
2017-11-18T14:38:54.405Z,7.20
2017-11-18T14:41:20.711Z,7.30
2017-11-18T14:43:47.270Z,7.30
2017-11-18T14:46:13.566Z,7.20
2017-11-18T14:48:40.568Z,7.10
2017-11-18T14:51:06.855Z,7.10
2017-11-18T14:53:33.590Z,7.10
2017-11-18T14:56:00.608Z,6.90
2017-11-18T14:58:27.016Z,6.90
2017-11-18T15:00:57.546Z,6.90
2017-11-18T15:03:24.634Z,6.90
2017-11-18T15:05:51.019Z,6.70
2017-11-18T15:08:17.354Z,6.90
2017-11-18T15:10:44.394Z,6.80
2017-11-18T15:13:11.348Z,6.80
2017-11-18T15:15:37.666Z,6.90
2017-11-18T15:18:10.840Z,6.90
2017-11-18T15:20:44.047Z,7.00
2017-11-18T15:23:22.167Z,7.00
2017-11-18T15:25:55.304Z,7.00
2017-11-18T15:28:27.695Z,7.00
2017-11-18T15:31:14.808Z,7.00
2017-11-18T15:33:42.762Z,7.10
2017-11-18T15:36:14.048Z,7.10
2017-11-18T15:38:42.904Z,7.10
2017-11-18T15:41:09.159Z,7.10
2017-11-18T15:43:36.312Z,7.10
2017-11-18T15:46:02.710Z,7.10
2017-11-18T15:48:35.908Z,7.10
2017-11-18T15:51:18.033Z,7.10
2017-11-18T15:53:50.396Z,7.10
2017-11-18T15:56:23.675Z,7.20
2017-11-18T15:58:51.951Z,7.10
2017-11-18T16:01:24.988Z,7.10
2017-11-18T16:03:53.891Z,7.10
2017-11-18T16:06:37.055Z,7.10
2017-11-18T16:09:03.383Z,6.90
2017-11-18T16:11:29.768Z,6.30
2017-11-18T16:13:56.066Z,6.20
2017-11-18T16:16:22.436Z,5.90
2017-11-18T16:18:48.813Z,4.70
2017-11-18T16:21:15.108Z,4.20
2017-11-18T16:23:41.451Z,4.20
2017-11-18T16:26:07.800Z,4.30
2017-11-18T16:28:34.210Z,4.30
2017-11-18T16:31:00.537Z,4.30
2017-11-18T16:33:27.659Z,4.50
2017-11-18T16:35:53.951Z,4.50
2017-11-18T16:38:20.331Z,4.60
2017-11-18T16:40:46.598Z,4.60
2017-11-18T16:43:12.925Z,4.60
2017-11-18T16:45:39.263Z,4.70
2017-11-18T16:48:05.630Z,4.80
2017-11-18T16:50:32.871Z,5.00
2017-11-18T16:52:59.199Z,4.90
2017-11-18T16:55:26.243Z,5.10
2017-11-18T16:57:53.315Z,5.10
2017-11-18T17:00:20.389Z,5.30
2017-11-18T17:02:47.556Z,5.30
2017-11-18T17:05:13.911Z,5.40
2017-11-18T17:07:40.206Z,5.50
2017-11-18T17:10:06.576Z,5.60
2017-11-18T17:15:06.061Z,5.60
2017-11-18T17:17:32.398Z,5.90
2017-11-18T17:19:59.703Z,5.90
2017-11-18T17:22:26.154Z,6.00
2017-11-18T17:24:52.512Z,5.90
2017-11-18T17:27:18.844Z,6.00
2017-11-18T17:29:45.219Z,6.10
2017-11-18T17:32:11.506Z,6.10
2017-11-18T17:34:41.666Z,6.20
2017-11-18T17:37:16.122Z,6.30
2017-11-18T17:39:43.116Z,6.20
2017-11-18T17:42:09.393Z,6.20
2017-11-18T17:44:36.431Z,6.30
2017-11-18T17:47:02.696Z,6.30
2017-11-18T17:49:28.985Z,6.40
2017-11-18T17:51:55.259Z,6.40
2017-11-18T17:54:21.520Z,6.40
2017-11-18T17:56:48.564Z,6.40
2017-11-18T17:59:14.899Z,6.40
2017-11-18T18:01:41.140Z,6.40
2017-11-18T18:04:07.419Z,5.90
2017-11-18T18:06:33.686Z,6.60
2017-11-18T18:08:59.951Z,6.40
2017-11-18T18:11:26.215Z,6.40
2017-11-18T18:13:52.511Z,6.40
2017-11-18T18:16:18.758Z,6.40
2017-11-18T18:18:45.043Z,6.40
2017-11-18T18:21:11.308Z,6.50
2017-11-18T18:23:38.348Z,6.50
2017-11-18T18:26:04.658Z,6.50
2017-11-18T18:31:12.720Z,6.40
2017-11-18T18:33:38.962Z,6.40
2017-11-18T18:36:05.334Z,6.60
2017-11-18T18:38:32.371Z,6.50
2017-11-18T18:41:02.675Z,6.10
2017-11-18T18:43:29.006Z,6.60
2017-11-18T18:45:58.524Z,6.60
2017-11-18T18:48:24.847Z,6.50
2017-11-18T18:50:51.170Z,6.50
2017-11-18T18:53:17.431Z,6.50
2017-11-18T18:55:44.430Z,6.40
2017-11-18T18:58:10.762Z,6.40
2017-11-18T19:00:37.032Z,6.40
2017-11-18T19:03:03.303Z,6.00
2017-11-18T19:05:29.634Z,6.50
2017-11-18T19:07:56.046Z,6.40
2017-11-18T19:10:22.319Z,6.40
2017-11-18T19:12:48.622Z,6.50
2017-11-18T19:15:14.898Z,6.50
2017-11-18T19:17:41.233Z,6.50
2017-11-18T19:20:07.588Z,6.60
2017-11-18T19:22:34.264Z,6.70
2017-11-18T19:25:00.572Z,6.60
2017-11-18T19:27:26.822Z,6.60
2017-11-18T19:29:53.119Z,6.60
2017-11-18T19:32:19.458Z,6.70
2017-11-18T19:34:45.730Z,6.60
2017-11-18T19:37:12.307Z,6.60
2017-11-18T19:39:38.669Z,6.50
2017-11-18T19:42:04.976Z,6.50
2017-11-18T19:44:31.293Z,6.50
2017-11-18T19:46:57.598Z,6.50
2017-11-18T19:49:23.892Z,6.40
2017-11-18T19:51:50.233Z,6.40
2017-11-18T19:54:16.885Z,6.30
2017-11-18T19:56:43.236Z,6.40
2017-11-18T19:59:09.565Z,6.50
2017-11-18T20:01:35.930Z,6.40
2017-11-18T20:04:02.245Z,6.40
2017-11-18T20:06:28.504Z,6.40
2017-11-18T20:08:54.772Z,6.40
2017-11-18T20:11:21.067Z,6.40
2017-11-18T20:13:47.435Z,6.50
2017-11-18T20:16:13.738Z,6.80
2017-11-18T20:18:40.027Z,6.50
2017-11-18T20:21:06.361Z,6.60
2017-11-18T20:23:33.703Z,6.60
2017-11-18T20:26:00.092Z,6.60
2017-11-18T20:28:27.122Z,6.70
2017-11-18T20:30:53.474Z,6.70
2017-11-18T20:33:19.724Z,6.70
2017-11-18T20:35:46.785Z,6.60
2017-11-18T20:38:13.843Z,6.60
2017-11-18T20:40:40.279Z,6.50
2017-11-18T20:43:06.615Z,6.20
2017-11-18T20:45:32.915Z,6.60
2017-11-18T20:47:59.196Z,6.70
2017-11-18T20:50:25.544Z,7.10
2017-11-18T20:52:51.822Z,6.70
2017-11-18T20:55:18.067Z,6.70
2017-11-18T20:57:45.072Z,6.80
2017-11-18T21:00:11.414Z,6.70
2017-11-18T21:02:41.809Z,6.80
2017-11-18T21:05:08.090Z,6.90
2017-11-18T21:07:34.400Z,6.90
2017-11-18T21:10:01.535Z,6.80
2017-11-18T21:12:28.607Z,6.80
2017-11-18T21:14:54.887Z,6.90
2017-11-18T21:17:21.137Z,7.20
2017-11-18T21:19:47.494Z,6.90
2017-11-18T21:22:13.767Z,6.80
2017-11-18T21:24:40.140Z,6.70
2017-11-18T21:27:08.483Z,6.70
2017-11-18T21:29:34.778Z,6.60
2017-11-18T21:32:01.747Z,6.70
2017-11-18T21:34:28.664Z,6.70
2017-11-18T21:36:54.954Z,6.40
2017-11-18T21:39:21.232Z,6.60
2017-11-18T21:41:47.483Z,6.70
2017-11-18T21:44:15.680Z,6.70
2017-11-18T21:46:42.014Z,6.80
2017-11-18T21:49:08.295Z,6.80
2017-11-18T21:51:34.616Z,6.80
2017-11-18T21:54:01.704Z,6.80
2017-11-18T21:56:28.959Z,6.80
2017-11-18T21:58:55.259Z,6.90
2017-11-18T22:01:21.555Z,6.90
2017-11-18T22:03:48.593Z,6.90
2017-11-18T22:06:14.849Z,6.60
2017-11-18T22:08:41.831Z,7.00
2017-11-18T22:11:08.092Z,7.00
2017-11-18T22:13:34.364Z,6.90
2017-11-18T22:16:00.619Z,7.00
2017-11-18T22:18:26.935Z,7.00
2017-11-18T22:20:53.244Z,7.00
2017-11-18T22:23:19.610Z,7.00
2017-11-18T22:25:45.860Z,7.00
2017-11-18T22:28:15.796Z,7.00
2017-11-18T22:30:42.052Z,7.10
2017-11-18T22:33:08.308Z,7.10
2017-11-18T22:35:35.809Z,7.20
2017-11-18T22:38:02.149Z,7.20
2017-11-18T22:40:28.415Z,7.20
2017-11-18T22:42:54.675Z,7.20
2017-11-18T22:45:20.986Z,7.10
2017-11-18T22:47:47.169Z,7.10
2017-11-18T22:50:13.455Z,7.10
2017-11-18T22:52:39.830Z,7.20
2017-11-18T22:55:06.279Z,7.00
2017-11-18T22:57:33.527Z,7.00
2017-11-18T22:59:59.815Z,7.00
2017-11-18T23:02:26.101Z,7.00
2017-11-18T23:04:52.426Z,7.00
2017-11-18T23:07:19.420Z,7.00
2017-11-18T23:09:45.724Z,7.00
2017-11-18T23:12:12.130Z,7.00
2017-11-18T23:14:38.443Z,6.60
2017-11-18T23:17:04.724Z,7.20
2017-11-18T23:19:30.907Z,7.10
2017-11-18T23:21:57.144Z,7.10
2017-11-18T23:24:24.161Z,7.20
2017-11-18T23:26:50.404Z,7.20
2017-11-18T23:29:16.660Z,7.20
2017-11-18T23:31:42.949Z,7.10
2017-11-18T23:34:09.230Z,7.00
2017-11-18T23:36:35.514Z,7.10
2017-11-18T23:39:01.790Z,7.20
2017-11-18T23:41:28.852Z,7.30
2017-11-18T23:43:55.224Z,7.30
2017-11-18T23:46:21.552Z,7.30
2017-11-18T23:48:47.822Z,7.30
2017-11-18T23:51:14.112Z,7.60
2017-11-18T23:53:40.465Z,7.20
2017-11-18T23:56:06.761Z,7.30
2017-11-18T23:58:34.304Z,7.50
